»·PEaware :: BISON14 KEND-KEND

BISON14 :: KEND-KEND

FLIGHT INFORMATION

Flight Status: Arrived
Operator: Unknown
More flights by this operator :: More flights under this callsign
Pilot: Jordan C. (21690)
Aircraft: BEECH AIRCRAFT T-6A TEXAN
(TEX2)
More flights by this aircraft type
Origin: KEND Vance AFB
United States
Destination: KEND Vance AFB
United States
More flights between these airports :: More routes between these airports
Route: +PATTERN
File this flight plan on PilotEdge
Remarks:
Altitude:
(Current/Filed)
0ft
Speed:
(Current/Filed)
0kts
Departed: 09-Apr-20 11:22 AM
Arrived: 09-Apr-20 12:09 PM
Distance/Time
Traveled:
0nm/0:47
Distance/Time
To Go:
Arrived

Flight Plot

Page will automatically refresh every two minutes.


Map Options




Map Legend


Flown Route
Filed Route
Departure Airport
Arrival Airport
Navaid (VOR, NDB)
Fix

Horizontal Profiles

Position Reports

Time Latitude Longitude Heading Altitude Ground
Speed
09-Apr-20 11:20 36.346851 -97.910841 289 1279ft 6kts
09-Apr-20 11:21 36.322885 -97.908969 141 2306ft 153kts
09-Apr-20 11:22 36.355350 -97.895012 356 2313ft 125kts
09-Apr-20 11:23 36.344254 -97.911010 180 1281ft 86kts
09-Apr-20 11:24 36.309244 -97.898694 90 1901ft 216kts
09-Apr-20 11:25 36.335661 -97.854212 0 2330ft 218kts
09-Apr-20 11:26 36.398446 -97.854243 359 2258ft 230kts
09-Apr-20 11:27 36.388695 -97.910199 186 2300ft 195kts
09-Apr-20 11:28 36.337267 -97.903985 81 2306ft 187kts
09-Apr-20 11:29 36.360355 -97.908514 209 1704ft 104kts
09-Apr-20 11:30 36.329853 -97.910860 177 1616ft 154kts
09-Apr-20 11:31 36.353318 -97.896146 0 2351ft 135kts
09-Apr-20 11:32 36.352118 -97.910989 179 1374ft 97kts
09-Apr-20 11:33 36.317201 -97.911000 179 1759ft 194kts
09-Apr-20 11:34 36.315673 -97.855659 1 2285ft 202kts
09-Apr-20 11:35 36.375079 -97.854069 358 2301ft 222kts
09-Apr-20 11:36 36.404981 -97.889877 223 2286ft 187kts
09-Apr-20 11:37 36.358518 -97.910911 181 2369ft 196kts
09-Apr-20 11:38 36.359497 -97.898077 332 2267ft 125kts
09-Apr-20 11:39 36.341187 -97.911028 179 1309ft 104kts
09-Apr-20 11:40 36.338889 -97.897114 352 2198ft 165kts
09-Apr-20 11:41 36.358767 -97.850752 4 2965ft 187kts
09-Apr-20 11:42 36.414937 -97.851413 359 2526ft 224kts
09-Apr-20 11:43 36.432121 -97.903119 228 2010ft 196kts
09-Apr-20 11:44 36.389495 -97.908342 194 1831ft 116kts
09-Apr-20 11:45 36.359320 -97.910950 182 1533ft 106kts
09-Apr-20 11:46 36.329601 -97.911119 179 1710ft 131kts
09-Apr-20 11:47 36.330438 -97.896591 1 2338ft 174kts
09-Apr-20 11:48 36.358543 -97.907903 218 1624ft 118kts
09-Apr-20 11:49 36.325883 -97.911110 181 1602ft 175kts
09-Apr-20 11:50 36.309774 -97.860329 70 2303ft 215kts
09-Apr-20 11:51 36.367704 -97.854239 357 2335ft 221kts
09-Apr-20 11:52 36.405426 -97.881944 263 2337ft 198kts
09-Apr-20 11:53 36.364681 -97.911116 182 2344ft 196kts
09-Apr-20 11:54 36.357267 -97.896584 359 2281ft 129kts
09-Apr-20 11:55 36.345985 -97.911017 180 1285ft 99kts
09-Apr-20 11:56 36.326923 -97.897943 14 2201ft 169kts
09-Apr-20 11:57 36.357735 -97.907478 222 1728ft 120kts
09-Apr-20 11:58 36.325051 -97.911282 178 1767ft 168kts
09-Apr-20 11:59 36.310470 -97.860420 67 2322ft 214kts
09-Apr-20 12:00 36.370023 -97.854313 358 2279ft 226kts
09-Apr-20 12:01 36.405217 -97.885743 264 2380ft 198kts
09-Apr-20 12:02 36.359097 -97.910948 180 2158ft 208kts
09-Apr-20 12:03 36.360488 -97.896971 359 2359ft 131kts
09-Apr-20 12:04 36.346298 -97.911019 178 1281ft 90kts
09-Apr-20 12:05 36.326580 -97.897544 5 2249ft 173kts
09-Apr-20 12:06 36.360294 -97.906511 235 1820ft 124kts
09-Apr-20 12:07 36.335027 -97.911016 183 1290ft 43kts
09-Apr-20 12:08 36.333805 -97.909833 42 1291ft 5kts

Navigation Log

Ident Type
Flight plan parsing failed, navigation log unavailable